Flight Track Log - Related Links

Times and Time Zones

All times are in EDT time to prevent confusion due to time zone crossing. See the FIN666 flight status page for this flight to view local times or setup timezone preferences in your user account.

Time Position Orientation Groundspeed Altitude Reporting Facility
EDT Latitude Longitude Course Direction KTS MPH feet Rate Location/Type
Sun 07:31:00 AM 55.8244 13.0824 49° Northeast  Level Estimated
Sun 07:32:00 AM 55.8929 13.2255 49° Northeast  Level Estimated
Sun 07:33:00 AM 55.9613 13.3692 50° Northeast  Level Estimated
Sun 07:34:00 AM 56.0294 13.5134 50° Northeast  Level Estimated
Sun 07:35:00 AM 56.1022 13.6682 50° Northeast  Level Estimated
Sun 07:36:00 AM 56.1748 13.8237 50° Northeast  Level Estimated
Sun 07:37:00 AM 56.2472 13.9797 50° Northeast  Level Estimated
Sun 07:38:00 AM 56.3194 14.1364 50° Northeast  Level Estimated
Sun 07:39:00 AM 56.3914 14.2936 50° Northeast  Level Estimated
Sun 07:40:00 AM 56.4632 14.4515 50° Northeast  Level Estimated
Sun 07:41:00 AM 56.5348 14.6099 51° Northeast  Level Estimated
Sun 07:42:00 AM 56.6062 14.7689 51° Northeast  Level Estimated
Sun 07:43:00 AM 56.6773 14.9285 51° Northeast  Level Estimated
Sun 07:44:00 AM 56.7483 15.0888 51° Northeast  Level Estimated
Sun 07:45:00 AM 56.8191 15.2496 51° Northeast  Level Estimated
Sun 07:46:00 AM 56.8897 15.4110 51° Northeast  Level Estimated
Sun 07:47:00 AM 56.9600 15.5731 51° Northeast  Level Estimated
Sun 07:48:00 AM 57.0302 15.7358 52° Northeast  Level Estimated
Sun 07:49:00 AM 57.1001 15.8991 52° Northeast  Level Estimated
Sun 07:50:00 AM 57.1698 16.0630 52° Northeast  Level Estimated
Sun 07:51:00 AM 57.2394 16.2275 52° Northeast  Level Estimated
Sun 07:52:00 AM 57.3087 16.3926 52° Northeast  Level Estimated
Sun 07:53:00 AM 57.3777 16.5584 52° Northeast  Level Estimated
Sun 07:54:00 AM 57.4466 16.7248 52° Northeast  Level Estimated
Sun 07:55:00 AM 57.5152 16.8918 53° Northeast  Level Estimated
Sun 07:56:00 AM 57.5836 17.0594 53° Northeast  Level Estimated
Sun 07:57:00 AM 57.6519 17.2277 53° Northeast  Level Estimated
Sun 07:58:00 AM 57.7198 17.3966 53° Northeast  Level Estimated
Sun 07:59:00 AM 57.7876 17.5661 53° Northeast  Level Estimated
Sun 08:00:00 AM 57.8551 17.7363 53° Northeast  Level Estimated
Sun 08:01:00 AM 57.9224 17.9071 53° Northeast  Level Estimated
Sun 08:02:00 AM 57.9894 18.0786 54° Northeast  Level Estimated
Sun 08:03:00 AM 58.0563 18.2506 54° Northeast  Level Estimated
Sun 08:04:00 AM 58.1229 18.4234 54° Northeast  Level Estimated
Sun 08:05:00 AM 58.1892 18.5968 54° Northeast  Level Estimated
Sun 08:06:00 AM 58.2553 18.7708 54° Northeast  Level Estimated
Sun 08:07:00 AM 58.3212 18.9455 54° Northeast  Level Estimated
Sun 08:08:00 AM 58.3869 19.1208 54° Northeast  Level Estimated
Sun 08:09:00 AM 58.4523 19.2968 55° Northeast  Level Estimated
Sun 08:10:00 AM 58.5175 19.4734 55° Northeast  Level Estimated
Sun 08:11:00 AM 58.5824 19.6507 55° Northeast  Level Estimated
Sun 08:12:00 AM 58.6471 19.8287 55° Northeast  Level Estimated
Sun 08:13:00 AM 58.7115 20.0073 55° Northeast  Level Estimated
Sun 08:14:00 AM 58.7757 20.1866 55° Northeast  Level Estimated
Sun 08:15:00 AM 58.8396 20.3665 55° Northeast  Level Estimated
Sun 08:16:00 AM 58.9033 20.5471 56° Northeast  Level Estimated
Sun 08:17:00 AM 58.9667 20.7284 56° Northeast  Level Estimated
Sun 08:18:00 AM 59.0299 20.9103 56° Northeast  Level Estimated
Sun 08:19:00 AM 59.0928 21.0929 56° Northeast  Level Estimated
Sun 08:20:00 AM 59.1555 21.2762 56° Northeast  Level Estimated
Sun 08:21:00 AM 59.2179 21.4601 56° Northeast  Level Estimated
Sun 08:22:00 AM 59.2800 21.6447 57° Northeast  Level Estimated
Sun 08:23:00 AM 59.3419 21.8300 57° Northeast  Level Estimated
Sun 08:24:00 AM 59.4035 22.0160 57° Northeast  Level Estimated
Sun 08:25:00 AM 59.4649 22.2026 57° Northeast  Level Estimated
Sun 08:26:00 AM 59.5260 22.3899 57° Northeast  Level Estimated
Sun 08:27:00 AM 59.5868 22.5779 57° Northeast  Level Estimated
Sun 08:28:00 AM 59.6473 22.7666 58° Northeast  Level Estimated
Sun 08:29:00 AM 59.7076 22.9560 58° Northeast  Level Estimated
Sun 08:30:00 AM 59.7676 23.1460 58° Northeast  Level Estimated
Sun 08:31:00 AM 59.8273 23.3367 58° Northeast  Level Estimated
Sun 08:32:00 AM 59.8868 23.5281 58° Northeast  Level Estimated
Sun 08:33:00 AM 59.9460 23.7202 58° Northeast  Level Estimated
Sun 08:34:00 AM 60.0048 23.9130 59° Northeast  Level Estimated
Sun 08:35:00 AM 60.0635 24.1064 59° Northeast  Level Estimated
Sun 08:36:00 AM 60.1218 24.3006 59° Northeast  Level Estimated
Sun 08:37:00 AM 60.1798 24.4954 59° Northeast  Level Estimated
Sun 08:38:00 AM 60.2376 24.6909 59° Northeast  Level Estimated
Sun 08:39:00 AM 60.2950 24.8871 59° Northeast  Level Estimated
Sun 08:40:00 AM 60.3172 24.9633 60° Northeast  Level Estimated
Sun 08:41:00 AM 60.3172 24.9633 North  Level Estimated
Sun 08:42:00 AM 60.3172 24.9633 North  Level Estimated
Sun 08:43:00 AM 60.3172 24.9633 North  Level Estimated
Sun 08:44:00 AM 60.3172 24.9633 North  Level Estimated
Sun 08:45:00 AM 60.3172 24.9633 North  Level Estimated
Sun 08:46:00 AM 60.3172 24.9633 North  Level Estimated
Sun 08:47:00 AM 60.3172 24.9633 North  Level Estimated
Sun 08:48:00 AM 60.3172 24.9633 North  Level Estimated
Sun 08:49:00 AM 60.3172 24.9633 North  Level Estimated
Sun 08:50:00 AM 60.3172 24.9633 North  Level Estimated
Sun 08:51:00 AM 60.3172 24.9633 North  Level Estimated

Login

Don't have an account? Register now (free) for customized features, flight alerts, and more!